Highland Park, Louisiana
Current Conditions -  °F | °C
As of 5:53 PM on Friday 19 Dec 2014 (Local Time) from KMLU Reporting Station
Overcast Overcast  
Wind Chill: 43°   Ceiling: 900
Heat Index: 47°   Visibility: 10mi
Dew Point: 45°   Wind: 8mph
Humidity: 93%   Direction: 10°N
Pressure: 30.17"   Gusts: NA
Location:  32.5473°N, 92.2007°W
Report Text: KMLU 192353Z 01007KT 10SM OVC009 08/07 A3017 RMK AO2 SLP216 60017 T00830072 10083 20078 53008
Loading
Personal Weather Stations






























Interactive Weather Map New forecast layout! Learn more

10-Day Weather Forecast

Advertisements
Track Severe Weather on mobile